sensor_id;sensor_type;location;lat;lon;timestamp;P1;durP1;ratioP1;P2;durP2;ratioP2
22675;SDS011;12521;43.310;21.876;2023-07-31T00:01:43;10.0;;;7.0;;
22675;SDS011;12521;43.310;21.876;2023-07-31T00:06:19;10.0;;;7.0;;
22675;SDS011;12521;43.310;21.876;2023-07-31T00:10:56;10.0;;;7.0;;
22675;SDS011;12521;43.310;21.876;2023-07-31T00:15:32;10.0;;;7.0;;
22675;SDS011;12521;43.310;21.876;2023-07-31T00:20:11;9.0;;;7.0;;
22675;SDS011;12521;43.310;21.876;2023-07-31T00:24:47;9.0;;;7.0;;
22675;SDS011;12521;43.310;21.876;2023-07-31T00:29:23;8.0;;;6.0;;
22675;SDS011;12521;43.310;21.876;2023-07-31T00:33:59;8.0;;;6.0;;
22675;SDS011;12521;43.310;21.876;2023-07-31T00:38:36;8.0;;;6.0;;
22675;SDS011;12521;43.310;21.876;2023-07-31T00:43:12;8.0;;;6.0;;
22675;SDS011;12521;43.310;21.876;2023-07-31T00:47:50;8.0;;;7.0;;
22675;SDS011;12521;43.310;21.876;2023-07-31T00:52:27;8.0;;;7.0;;
22675;SDS011;12521;43.310;21.876;2023-07-31T00:57:05;8.0;;;7.0;;
22675;SDS011;12521;43.310;21.876;2023-07-31T01:01:43;9.0;;;8.0;;
22675;SDS011;12521;43.310;21.876;2023-07-31T01:06:44;9.0;;;8.0;;
22675;SDS011;12521;43.310;21.876;2023-07-31T01:12:00;10.0;;;8.0;;
22675;SDS011;12521;43.310;21.876;2023-07-31T01:16:43;10.0;;;8.0;;
22675;SDS011;12521;43.310;21.876;2023-07-31T01:22:20;10.0;;;9.0;;
22675;SDS011;12521;43.310;21.876;2023-07-31T01:28:11;10.0;;;9.0;;
22675;SDS011;12521;43.310;21.876;2023-07-31T01:33:04;10.0;;;9.0;;
22675;SDS011;12521;43.310;21.876;2023-07-31T01:37:41;11.0;;;9.0;;
22675;SDS011;12521;43.310;21.876;2023-07-31T01:42:17;11.0;;;9.0;;
22675;SDS011;12521;43.310;21.876;2023-07-31T01:46:54;11.0;;;9.0;;
22675;SDS011;12521;43.310;21.876;2023-07-31T01:51:30;11.0;;;9.0;;
22675;SDS011;12521;43.310;21.876;2023-07-31T01:56:07;11.0;;;9.0;;
22675;SDS011;12521;43.310;21.876;2023-07-31T02:00:44;11.0;;;9.0;;
22675;SDS011;12521;43.310;21.876;2023-07-31T02:05:20;11.0;;;9.0;;
22675;SDS011;12521;43.310;21.876;2023-07-31T02:09:57;12.0;;;10.0;;
22675;SDS011;12521;43.310;21.876;2023-07-31T02:14:34;12.0;;;10.0;;
22675;SDS011;12521;43.310;21.876;2023-07-31T02:19:11;12.0;;;10.0;;
22675;SDS011;12521;43.310;21.876;2023-07-31T02:23:47;12.0;;;10.0;;
22675;SDS011;12521;43.310;21.876;2023-07-31T02:28:25;12.0;;;10.0;;
22675;SDS011;12521;43.310;21.876;2023-07-31T02:33:03;12.0;;;10.0;;
22675;SDS011;12521;43.310;21.876;2023-07-31T02:37:41;11.0;;;10.0;;
22675;SDS011;12521;43.310;21.876;2023-07-31T02:42:18;11.0;;;10.0;;
22675;SDS011;12521;43.310;21.876;2023-07-31T02:46:54;11.0;;;10.0;;
22675;SDS011;12521;43.310;21.876;2023-07-31T02:51:31;12.0;;;10.0;;
22675;SDS011;12521;43.310;21.876;2023-07-31T02:56:07;12.0;;;10.0;;
22675;SDS011;12521;43.310;21.876;2023-07-31T03:00:45;12.0;;;10.0;;
22675;SDS011;12521;43.310;21.876;2023-07-31T03:05:21;12.0;;;10.0;;
22675;SDS011;12521;43.310;21.876;2023-07-31T03:09:58;12.0;;;10.0;;
22675;SDS011;12521;43.310;21.876;2023-07-31T03:14:34;12.0;;;10.0;;
22675;SDS011;12521;43.310;21.876;2023-07-31T03:19:10;12.0;;;11.0;;
22675;SDS011;12521;43.310;21.876;2023-07-31T03:23:47;12.0;;;11.0;;
22675;SDS011;12521;43.310;21.876;2023-07-31T03:28:24;12.0;;;12.0;;
22675;SDS011;12521;43.310;21.876;2023-07-31T03:33:01;12.0;;;12.0;;
22675;SDS011;12521;43.310;21.876;2023-07-31T03:37:37;13.0;;;12.0;;
22675;SDS011;12521;43.310;21.876;2023-07-31T03:42:14;13.0;;;12.0;;
22675;SDS011;12521;43.310;21.876;2023-07-31T03:46:51;13.0;;;12.0;;
22675;SDS011;12521;43.310;21.876;2023-07-31T03:51:28;13.0;;;12.0;;
22675;SDS011;12521;43.310;21.876;2023-07-31T03:56:05;13.0;;;12.0;;
22675;SDS011;12521;43.310;21.876;2023-07-31T04:00:41;13.0;;;12.0;;
22675;SDS011;12521;43.310;21.876;2023-07-31T04:05:19;13.0;;;12.0;;
22675;SDS011;12521;43.310;21.876;2023-07-31T04:09:57;14.0;;;12.0;;
22675;SDS011;12521;43.310;21.876;2023-07-31T04:14:34;14.0;;;12.0;;
22675;SDS011;12521;43.310;21.876;2023-07-31T04:19:10;16.0;;;13.0;;
22675;SDS011;12521;43.310;21.876;2023-07-31T04:23:47;16.0;;;13.0;;
22675;SDS011;12521;43.310;21.876;2023-07-31T04:28:23;16.0;;;13.0;;
22675;SDS011;12521;43.310;21.876;2023-07-31T04:32:59;16.0;;;13.0;;
22675;SDS011;12521;43.310;21.876;2023-07-31T04:37:36;16.0;;;13.0;;
22675;SDS011;12521;43.310;21.876;2023-07-31T04:42:12;15.0;;;13.0;;
22675;SDS011;12521;43.310;21.876;2023-07-31T04:46:49;15.0;;;13.0;;
22675;SDS011;12521;43.310;21.876;2023-07-31T04:51:25;14.0;;;12.0;;
22675;SDS011;12521;43.310;21.876;2023-07-31T04:56:03;14.0;;;12.0;;
22675;SDS011;12521;43.310;21.876;2023-07-31T05:00:40;12.0;;;11.0;;
22675;SDS011;12521;43.310;21.876;2023-07-31T05:05:17;12.0;;;11.0;;
22675;SDS011;12521;43.310;21.876;2023-07-31T05:09:54;14.0;;;12.0;;
22675;SDS011;12521;43.310;21.876;2023-07-31T05:14:30;14.0;;;12.0;;
22675;SDS011;12521;43.310;21.876;2023-07-31T05:19:07;15.0;;;14.0;;
22675;SDS011;12521;43.310;21.876;2023-07-31T05:23:44;15.0;;;14.0;;
22675;SDS011;12521;43.310;21.876;2023-07-31T05:28:21;15.0;;;14.0;;
22675;SDS011;12521;43.310;21.876;2023-07-31T05:32:58;15.0;;;14.0;;
22675;SDS011;12521;43.310;21.876;2023-07-31T05:37:34;15.0;;;14.0;;
22675;SDS011;12521;43.310;21.876;2023-07-31T05:42:11;15.0;;;13.0;;
22675;SDS011;12521;43.310;21.876;2023-07-31T05:46:47;15.0;;;13.0;;
22675;SDS011;12521;43.310;21.876;2023-07-31T05:51:23;16.0;;;14.0;;
22675;SDS011;12521;43.310;21.876;2023-07-31T05:55:59;16.0;;;14.0;;
22675;SDS011;12521;43.310;21.876;2023-07-31T06:00:36;17.0;;;15.0;;
22675;SDS011;12521;43.310;21.876;2023-07-31T06:05:13;17.0;;;15.0;;
22675;SDS011;12521;43.310;21.876;2023-07-31T06:09:50;16.0;;;14.0;;
22675;SDS011;12521;43.310;21.876;2023-07-31T06:14:27;16.0;;;14.0;;
22675;SDS011;12521;43.310;21.876;2023-07-31T06:19:04;16.0;;;14.0;;
22675;SDS011;12521;43.310;21.876;2023-07-31T06:23:40;16.0;;;14.0;;
22675;SDS011;12521;43.310;21.876;2023-07-31T06:28:17;16.0;;;14.0;;
22675;SDS011;12521;43.310;21.876;2023-07-31T06:32:54;16.0;;;14.0;;
22675;SDS011;12521;43.310;21.876;2023-07-31T06:37:31;16.0;;;14.0;;
22675;SDS011;12521;43.310;21.876;2023-07-31T06:42:07;17.0;;;15.0;;
22675;SDS011;12521;43.310;21.876;2023-07-31T06:46:44;17.0;;;15.0;;
22675;SDS011;12521;43.310;21.876;2023-07-31T06:51:21;19.0;;;16.0;;
22675;SDS011;12521;43.310;21.876;2023-07-31T06:55:57;19.0;;;16.0;;
22675;SDS011;12521;43.310;21.876;2023-07-31T07:00:34;21.0;;;17.0;;
22675;SDS011;12521;43.310;21.876;2023-07-31T07:05:10;21.0;;;17.0;;
22675;SDS011;12521;43.310;21.876;2023-07-31T07:09:47;18.0;;;15.0;;
22675;SDS011;12521;43.310;21.876;2023-07-31T07:14:23;18.0;;;15.0;;
22675;SDS011;12521;43.310;21.876;2023-07-31T07:19:00;16.0;;;13.0;;
22675;SDS011;12521;43.310;21.876;2023-07-31T07:23:36;16.0;;;13.0;;
22675;SDS011;12521;43.310;21.876;2023-07-31T07:28:14;16.0;;;14.0;;
22675;SDS011;12521;43.310;21.876;2023-07-31T07:32:51;16.0;;;14.0;;
22675;SDS011;12521;43.310;21.876;2023-07-31T07:37:27;16.0;;;14.0;;
22675;SDS011;12521;43.310;21.876;2023-07-31T07:42:04;17.0;;;14.0;;
22675;SDS011;12521;43.310;21.876;2023-07-31T07:46:43;17.0;;;14.0;;
22675;SDS011;12521;43.310;21.876;2023-07-31T07:51:20;16.0;;;14.0;;
22675;SDS011;12521;43.310;21.876;2023-07-31T07:55:56;16.0;;;14.0;;
22675;SDS011;12521;43.310;21.876;2023-07-31T08:00:33;16.0;;;13.0;;
22675;SDS011;12521;43.310;21.876;2023-07-31T08:05:09;16.0;;;13.0;;
22675;SDS011;12521;43.310;21.876;2023-07-31T08:09:46;16.0;;;14.0;;
22675;SDS011;12521;43.310;21.876;2023-07-31T08:14:22;16.0;;;14.0;;
22675;SDS011;12521;43.310;21.876;2023-07-31T08:18:58;15.0;;;14.0;;
22675;SDS011;12521;43.310;21.876;2023-07-31T08:23:35;15.0;;;14.0;;
22675;SDS011;12521;43.310;21.876;2023-07-31T08:28:11;16.0;;;14.0;;
22675;SDS011;12521;43.310;21.876;2023-07-31T08:32:48;16.0;;;14.0;;
22675;SDS011;12521;43.310;21.876;2023-07-31T08:37:25;16.0;;;14.0;;
22675;SDS011;12521;43.310;21.876;2023-07-31T08:42:01;17.0;;;13.0;;
22675;SDS011;12521;43.310;21.876;2023-07-31T08:46:41;17.0;;;13.0;;
22675;SDS011;12521;43.310;21.876;2023-07-31T08:51:20;16.0;;;13.0;;
22675;SDS011;12521;43.310;21.876;2023-07-31T08:56:00;16.0;;;13.0;;
22675;SDS011;12521;43.310;21.876;2023-07-31T09:00:43;15.0;;;13.0;;
22675;SDS011;12521;43.310;21.876;2023-07-31T09:05:26;15.0;;;13.0;;
22675;SDS011;12521;43.310;21.876;2023-07-31T09:10:09;16.0;;;14.0;;
22675;SDS011;12521;43.310;21.876;2023-07-31T09:14:47;16.0;;;14.0;;
22675;SDS011;12521;43.310;21.876;2023-07-31T09:19:31;18.0;;;15.0;;
22675;SDS011;12521;43.310;21.876;2023-07-31T09:24:27;18.0;;;15.0;;
22675;SDS011;12521;43.310;21.876;2023-07-31T09:29:20;16.0;;;14.0;;
22675;SDS011;12521;43.310;21.876;2023-07-31T09:33:56;16.0;;;14.0;;
22675;SDS011;12521;43.310;21.876;2023-07-31T09:38:32;14.0;;;12.0;;
22675;SDS011;12521;43.310;21.876;2023-07-31T09:43:14;14.0;;;12.0;;
22675;SDS011;12521;43.310;21.876;2023-07-31T09:47:54;14.0;;;12.0;;
22675;SDS011;12521;43.310;21.876;2023-07-31T09:52:30;13.0;;;12.0;;
22675;SDS011;12521;43.310;21.876;2023-07-31T09:57:11;13.0;;;12.0;;
22675;SDS011;12521;43.310;21.876;2023-07-31T10:01:54;12.0;;;11.0;;
22675;SDS011;12521;43.310;21.876;2023-07-31T10:06:38;12.0;;;11.0;;
22675;SDS011;12521;43.310;21.876;2023-07-31T10:11:27;11.0;;;10.0;;
22675;SDS011;12521;43.310;21.876;2023-07-31T10:16:17;11.0;;;10.0;;
22675;SDS011;12521;43.310;21.876;2023-07-31T10:20:57;10.0;;;9.0;;
22675;SDS011;12521;43.310;21.876;2023-07-31T10:25:38;10.0;;;9.0;;
22675;SDS011;12521;43.310;21.876;2023-07-31T10:30:27;10.0;;;9.0;;
22675;SDS011;12521;43.310;21.876;2023-07-31T10:35:12;10.0;;;9.0;;
22675;SDS011;12521;43.310;21.876;2023-07-31T10:40:05;10.0;;;9.0;;
22675;SDS011;12521;43.310;21.876;2023-07-31T10:44:47;10.0;;;9.0;;
22675;SDS011;12521;43.310;21.876;2023-07-31T10:49:24;9.0;;;8.0;;
22675;SDS011;12521;43.310;21.876;2023-07-31T10:54:13;9.0;;;8.0;;
22675;SDS011;12521;43.310;21.876;2023-07-31T10:59:01;8.0;;;7.0;;
22675;SDS011;12521;43.310;21.876;2023-07-31T11:03:47;8.0;;;7.0;;
22675;SDS011;12521;43.310;21.876;2023-07-31T11:08:30;6.0;;;6.0;;
22675;SDS011;12521;43.310;21.876;2023-07-31T11:13:07;6.0;;;6.0;;
22675;SDS011;12521;43.310;21.876;2023-07-31T11:17:44;6.0;;;6.0;;
22675;SDS011;12521;43.310;21.876;2023-07-31T11:22:21;5.0;;;5.0;;
22675;SDS011;12521;43.310;21.876;2023-07-31T11:26:58;5.0;;;5.0;;
22675;SDS011;12521;43.310;21.876;2023-07-31T11:31:43;6.0;;;5.0;;
22675;SDS011;12521;43.310;21.876;2023-07-31T11:36:21;6.0;;;5.0;;
22675;SDS011;12521;43.310;21.876;2023-07-31T11:41:04;6.0;;;5.0;;
22675;SDS011;12521;43.310;21.876;2023-07-31T11:45:41;6.0;;;5.0;;
22675;SDS011;12521;43.310;21.876;2023-07-31T11:50:24;8.0;;;5.0;;
22675;SDS011;12521;43.310;21.876;2023-07-31T11:55:05;8.0;;;5.0;;
22675;SDS011;12521;43.310;21.876;2023-07-31T11:59:46;9.0;;;5.0;;
22675;SDS011;12521;43.310;21.876;2023-07-31T12:04:24;9.0;;;5.0;;
22675;SDS011;12521;43.310;21.876;2023-07-31T12:09:04;8.0;;;4.0;;
22675;SDS011;12521;43.310;21.876;2023-07-31T12:13:42;8.0;;;4.0;;
22675;SDS011;12521;43.310;21.876;2023-07-31T12:18:20;6.0;;;4.0;;
22675;SDS011;12521;43.310;21.876;2023-07-31T12:22:58;6.0;;;4.0;;
22675;SDS011;12521;43.310;21.876;2023-07-31T12:27:35;6.0;;;4.0;;
22675;SDS011;12521;43.310;21.876;2023-07-31T12:32:23;6.0;;;4.0;;
22675;SDS011;12521;43.310;21.876;2023-07-31T12:37:01;6.0;;;4.0;;
22675;SDS011;12521;43.310;21.876;2023-07-31T12:41:38;5.0;;;4.0;;
22675;SDS011;12521;43.310;21.876;2023-07-31T12:46:14;5.0;;;4.0;;
22675;SDS011;12521;43.310;21.876;2023-07-31T12:50:52;5.0;;;4.0;;
22675;SDS011;12521;43.310;21.876;2023-07-31T12:55:28;5.0;;;4.0;;
22675;SDS011;12521;43.310;21.876;2023-07-31T13:00:09;5.0;;;4.0;;
22675;SDS011;12521;43.310;21.876;2023-07-31T13:04:50;5.0;;;4.0;;
22675;SDS011;12521;43.310;21.876;2023-07-31T13:09:27;6.0;;;4.0;;
22675;SDS011;12521;43.310;21.876;2023-07-31T13:14:04;6.0;;;4.0;;
22675;SDS011;12521;43.310;21.876;2023-07-31T13:18:40;6.0;;;4.0;;
22675;SDS011;12521;43.310;21.876;2023-07-31T13:23:16;6.0;;;4.0;;
22675;SDS011;12521;43.310;21.876;2023-07-31T13:27:53;6.0;;;4.0;;
22675;SDS011;12521;43.310;21.876;2023-07-31T13:32:30;6.0;;;4.0;;
22675;SDS011;12521;43.310;21.876;2023-07-31T13:37:06;6.0;;;4.0;;
22675;SDS011;12521;43.310;21.876;2023-07-31T13:41:42;5.0;;;4.0;;
22675;SDS011;12521;43.310;21.876;2023-07-31T13:46:18;5.0;;;4.0;;
22675;SDS011;12521;43.310;21.876;2023-07-31T13:50:55;4.0;;;4.0;;
22675;SDS011;12521;43.310;21.876;2023-07-31T13:55:31;4.0;;;4.0;;
22675;SDS011;12521;43.310;21.876;2023-07-31T14:00:11;4.0;;;3.0;;
22675;SDS011;12521;43.310;21.876;2023-07-31T14:04:50;4.0;;;3.0;;
22675;SDS011;12521;43.310;21.876;2023-07-31T14:09:27;4.0;;;3.0;;
22675;SDS011;12521;43.310;21.876;2023-07-31T14:14:03;4.0;;;3.0;;
22675;SDS011;12521;43.310;21.876;2023-07-31T14:18:41;3.0;;;3.0;;
22675;SDS011;12521;43.310;21.876;2023-07-31T14:23:18;3.0;;;3.0;;
22675;SDS011;12521;43.310;21.876;2023-07-31T14:27:55;3.0;;;3.0;;
22675;SDS011;12521;43.310;21.876;2023-07-31T14:32:32;4.0;;;3.0;;
22675;SDS011;12521;43.310;21.876;2023-07-31T14:37:08;4.0;;;3.0;;
22675;SDS011;12521;43.310;21.876;2023-07-31T14:41:46;4.0;;;3.0;;
22675;SDS011;12521;43.310;21.876;2023-07-31T14:46:23;4.0;;;3.0;;
22675;SDS011;12521;43.310;21.876;2023-07-31T14:51:00;4.0;;;3.0;;
22675;SDS011;12521;43.310;21.876;2023-07-31T14:55:37;4.0;;;3.0;;
22675;SDS011;12521;43.310;21.876;2023-07-31T15:00:15;4.0;;;3.0;;
22675;SDS011;12521;43.310;21.876;2023-07-31T15:04:51;4.0;;;3.0;;
22675;SDS011;12521;43.310;21.876;2023-07-31T15:09:28;4.0;;;3.0;;
22675;SDS011;12521;43.310;21.876;2023-07-31T15:14:05;4.0;;;3.0;;
22675;SDS011;12521;43.310;21.876;2023-07-31T15:18:42;4.0;;;3.0;;
22675;SDS011;12521;43.310;21.876;2023-07-31T15:23:19;4.0;;;3.0;;
22675;SDS011;12521;43.310;21.876;2023-07-31T15:27:56;4.0;;;3.0;;
22675;SDS011;12521;43.310;21.876;2023-07-31T15:32:33;4.0;;;3.0;;
22675;SDS011;12521;43.310;21.876;2023-07-31T15:37:10;4.0;;;3.0;;
22675;SDS011;12521;43.310;21.876;2023-07-31T15:41:46;5.0;;;3.0;;
22675;SDS011;12521;43.310;21.876;2023-07-31T15:46:23;5.0;;;3.0;;
22675;SDS011;12521;43.310;21.876;2023-07-31T15:51:00;4.0;;;3.0;;
22675;SDS011;12521;43.310;21.876;2023-07-31T15:55:37;4.0;;;3.0;;
22675;SDS011;12521;43.310;21.876;2023-07-31T16:00:14;4.0;;;3.0;;
22675;SDS011;12521;43.310;21.876;2023-07-31T16:04:51;4.0;;;3.0;;
22675;SDS011;12521;43.310;21.876;2023-07-31T16:09:28;4.0;;;2.0;;
22675;SDS011;12521;43.310;21.876;2023-07-31T16:14:04;4.0;;;2.0;;
22675;SDS011;12521;43.310;21.876;2023-07-31T16:18:40;3.0;;;2.0;;
22675;SDS011;12521;43.310;21.876;2023-07-31T16:23:16;3.0;;;2.0;;
22675;SDS011;12521;43.310;21.876;2023-07-31T16:27:53;3.0;;;2.0;;
22675;SDS011;12521;43.310;21.876;2023-07-31T16:32:30;3.0;;;2.0;;
22675;SDS011;12521;43.310;21.876;2023-07-31T16:37:06;3.0;;;2.0;;
22675;SDS011;12521;43.310;21.876;2023-07-31T16:41:43;3.0;;;3.0;;
22675;SDS011;12521;43.310;21.876;2023-07-31T16:46:20;3.0;;;3.0;;
22675;SDS011;12521;43.310;21.876;2023-07-31T16:50:56;4.0;;;4.0;;
22675;SDS011;12521;43.310;21.876;2023-07-31T16:55:33;4.0;;;4.0;;
22675;SDS011;12521;43.310;21.876;2023-07-31T17:00:12;6.0;;;4.0;;
22675;SDS011;12521;43.310;21.876;2023-07-31T17:04:51;6.0;;;4.0;;
22675;SDS011;12521;43.310;21.876;2023-07-31T17:09:27;6.0;;;4.0;;
22675;SDS011;12521;43.310;21.876;2023-07-31T17:14:04;6.0;;;4.0;;
22675;SDS011;12521;43.310;21.876;2023-07-31T17:18:41;6.0;;;4.0;;
22675;SDS011;12521;43.310;21.876;2023-07-31T17:23:18;6.0;;;4.0;;
22675;SDS011;12521;43.310;21.876;2023-07-31T17:27:54;6.0;;;4.0;;
22675;SDS011;12521;43.310;21.876;2023-07-31T17:32:31;5.0;;;4.0;;
22675;SDS011;12521;43.310;21.876;2023-07-31T17:37:07;5.0;;;4.0;;
22675;SDS011;12521;43.310;21.876;2023-07-31T17:41:44;4.0;;;4.0;;
22675;SDS011;12521;43.310;21.876;2023-07-31T17:46:20;4.0;;;4.0;;
22675;SDS011;12521;43.310;21.876;2023-07-31T17:50:57;5.0;;;4.0;;
22675;SDS011;12521;43.310;21.876;2023-07-31T17:55:34;5.0;;;4.0;;
22675;SDS011;12521;43.310;21.876;2023-07-31T18:00:12;6.0;;;3.0;;
22675;SDS011;12521;43.310;21.876;2023-07-31T18:04:50;6.0;;;3.0;;
22675;SDS011;12521;43.310;21.876;2023-07-31T18:09:26;6.0;;;4.0;;
22675;SDS011;12521;43.310;21.876;2023-07-31T18:14:03;6.0;;;4.0;;
22675;SDS011;12521;43.310;21.876;2023-07-31T18:18:40;5.0;;;4.0;;
22675;SDS011;12521;43.310;21.876;2023-07-31T18:23:17;5.0;;;4.0;;
22675;SDS011;12521;43.310;21.876;2023-07-31T18:27:53;5.0;;;4.0;;
22675;SDS011;12521;43.310;21.876;2023-07-31T18:32:30;4.0;;;4.0;;
22675;SDS011;12521;43.310;21.876;2023-07-31T18:37:07;4.0;;;4.0;;
22675;SDS011;12521;43.310;21.876;2023-07-31T18:41:43;4.0;;;4.0;;
22675;SDS011;12521;43.310;21.876;2023-07-31T18:46:20;4.0;;;4.0;;
22675;SDS011;12521;43.310;21.876;2023-07-31T18:50:57;4.0;;;4.0;;
22675;SDS011;12521;43.310;21.876;2023-07-31T18:55:33;4.0;;;4.0;;
22675;SDS011;12521;43.310;21.876;2023-07-31T19:00:11;5.0;;;3.0;;
22675;SDS011;12521;43.310;21.876;2023-07-31T19:04:47;5.0;;;3.0;;
22675;SDS011;12521;43.310;21.876;2023-07-31T19:09:29;6.0;;;4.0;;
22675;SDS011;12521;43.310;21.876;2023-07-31T19:14:09;6.0;;;4.0;;
22675;SDS011;12521;43.310;21.876;2023-07-31T19:18:45;6.0;;;4.0;;
22675;SDS011;12521;43.310;21.876;2023-07-31T19:23:22;6.0;;;4.0;;
22675;SDS011;12521;43.310;21.876;2023-07-31T19:28:00;6.0;;;4.0;;
22675;SDS011;12521;43.310;21.876;2023-07-31T19:32:36;7.0;;;4.0;;
22675;SDS011;12521;43.310;21.876;2023-07-31T19:37:13;7.0;;;4.0;;
22675;SDS011;12521;43.310;21.876;2023-07-31T19:41:50;8.0;;;5.0;;
22675;SDS011;12521;43.310;21.876;2023-07-31T19:46:26;8.0;;;5.0;;
22675;SDS011;12521;43.310;21.876;2023-07-31T19:51:03;6.0;;;4.0;;
22675;SDS011;12521;43.310;21.876;2023-07-31T19:55:40;6.0;;;4.0;;
22675;SDS011;12521;43.310;21.876;2023-07-31T20:00:16;4.0;;;4.0;;
22675;SDS011;12521;43.310;21.876;2023-07-31T20:04:53;4.0;;;4.0;;
22675;SDS011;12521;43.310;21.876;2023-07-31T20:09:30;5.0;;;4.0;;
22675;SDS011;12521;43.310;21.876;2023-07-31T20:14:07;5.0;;;4.0;;
22675;SDS011;12521;43.310;21.876;2023-07-31T20:18:45;6.0;;;4.0;;
22675;SDS011;12521;43.310;21.876;2023-07-31T20:23:21;6.0;;;4.0;;
22675;SDS011;12521;43.310;21.876;2023-07-31T20:27:58;6.0;;;4.0;;
22675;SDS011;12521;43.310;21.876;2023-07-31T20:32:34;6.0;;;4.0;;
22675;SDS011;12521;43.310;21.876;2023-07-31T20:37:11;6.0;;;4.0;;
22675;SDS011;12521;43.310;21.876;2023-07-31T20:41:47;6.0;;;4.0;;
22675;SDS011;12521;43.310;21.876;2023-07-31T20:46:24;6.0;;;4.0;;
22675;SDS011;12521;43.310;21.876;2023-07-31T20:51:02;6.0;;;4.0;;
22675;SDS011;12521;43.310;21.876;2023-07-31T20:55:39;6.0;;;4.0;;
22675;SDS011;12521;43.310;21.876;2023-07-31T21:00:17;6.0;;;4.0;;
22675;SDS011;12521;43.310;21.876;2023-07-31T21:04:54;6.0;;;4.0;;
22675;SDS011;12521;43.310;21.876;2023-07-31T21:09:31;6.0;;;4.0;;
22675;SDS011;12521;43.310;21.876;2023-07-31T21:14:09;6.0;;;4.0;;
22675;SDS011;12521;43.310;21.876;2023-07-31T21:18:46;6.0;;;4.0;;
22675;SDS011;12521;43.310;21.876;2023-07-31T21:23:22;6.0;;;4.0;;
22675;SDS011;12521;43.310;21.876;2023-07-31T21:27:59;6.0;;;4.0;;
22675;SDS011;12521;43.310;21.876;2023-07-31T21:32:35;6.0;;;4.0;;
22675;SDS011;12521;43.310;21.876;2023-07-31T21:37:11;6.0;;;4.0;;
22675;SDS011;12521;43.310;21.876;2023-07-31T21:41:47;7.0;;;5.0;;
22675;SDS011;12521;43.310;21.876;2023-07-31T21:46:24;7.0;;;5.0;;
22675;SDS011;12521;43.310;21.876;2023-07-31T21:51:00;8.0;;;5.0;;
22675;SDS011;12521;43.310;21.876;2023-07-31T21:55:36;8.0;;;5.0;;
22675;SDS011;12521;43.310;21.876;2023-07-31T22:00:14;8.0;;;5.0;;
22675;SDS011;12521;43.310;21.876;2023-07-31T22:04:51;8.0;;;5.0;;
22675;SDS011;12521;43.310;21.876;2023-07-31T22:09:27;6.0;;;4.0;;
22675;SDS011;12521;43.310;21.876;2023-07-31T22:14:04;6.0;;;4.0;;
22675;SDS011;12521;43.310;21.876;2023-07-31T22:18:41;5.0;;;4.0;;
22675;SDS011;12521;43.310;21.876;2023-07-31T22:23:18;5.0;;;4.0;;
22675;SDS011;12521;43.310;21.876;2023-07-31T22:27:55;5.0;;;4.0;;
22675;SDS011;12521;43.310;21.876;2023-07-31T22:32:32;6.0;;;4.0;;
22675;SDS011;12521;43.310;21.876;2023-07-31T22:37:08;6.0;;;4.0;;
22675;SDS011;12521;43.310;21.876;2023-07-31T22:41:45;6.0;;;5.0;;
22675;SDS011;12521;43.310;21.876;2023-07-31T22:46:22;6.0;;;5.0;;
22675;SDS011;12521;43.310;21.876;2023-07-31T22:50:59;6.0;;;5.0;;
22675;SDS011;12521;43.310;21.876;2023-07-31T22:55:36;6.0;;;5.0;;
22675;SDS011;12521;43.310;21.876;2023-07-31T23:00:15;7.0;;;5.0;;
22675;SDS011;12521;43.310;21.876;2023-07-31T23:04:52;7.0;;;5.0;;
22675;SDS011;12521;43.310;21.876;2023-07-31T23:09:29;6.0;;;5.0;;
22675;SDS011;12521;43.310;21.876;2023-07-31T23:14:06;6.0;;;5.0;;
22675;SDS011;12521;43.310;21.876;2023-07-31T23:18:42;6.0;;;5.0;;
22675;SDS011;12521;43.310;21.876;2023-07-31T23:23:19;6.0;;;5.0;;
22675;SDS011;12521;43.310;21.876;2023-07-31T23:27:56;6.0;;;5.0;;
22675;SDS011;12521;43.310;21.876;2023-07-31T23:32:33;6.0;;;4.0;;
22675;SDS011;12521;43.310;21.876;2023-07-31T23:37:09;6.0;;;4.0;;
22675;SDS011;12521;43.310;21.876;2023-07-31T23:41:46;5.0;;;4.0;;
22675;SDS011;12521;43.310;21.876;2023-07-31T23:46:23;5.0;;;4.0;;
22675;SDS011;12521;43.310;21.876;2023-07-31T23:50:59;6.0;;;4.0;;
22675;SDS011;12521;43.310;21.876;2023-07-31T23:55:38;6.0;;;4.0;;
